sensor_id;sensor_type;location;lat;lon;timestamp;P1;durP1;ratioP1;P2;durP2;ratioP2
50231;SDS011;36118;56.468;84.952;2023-04-25T00:00:47;2.33;;;1.30;;
50231;SDS011;36118;56.468;84.952;2023-04-25T00:05:50;1.67;;;0.73;;
50231;SDS011;36118;56.468;84.952;2023-04-25T00:10:54;2.95;;;1.05;;
50231;SDS011;36118;56.468;84.952;2023-04-25T00:15:56;3.20;;;1.33;;
50231;SDS011;36118;56.468;84.952;2023-04-25T00:21:00;2.90;;;1.35;;
50231;SDS011;36118;56.468;84.952;2023-04-25T00:26:03;3.30;;;1.60;;
50231;SDS011;36118;56.468;84.952;2023-04-25T00:31:06;3.35;;;0.82;;
50231;SDS011;36118;56.468;84.952;2023-04-25T00:36:09;3.00;;;1.35;;
50231;SDS011;36118;56.468;84.952;2023-04-25T00:41:12;2.78;;;0.82;;
50231;SDS011;36118;56.468;84.952;2023-04-25T00:46:15;3.15;;;1.27;;
50231;SDS011;36118;56.468;84.952;2023-04-25T00:51:19;1.95;;;0.60;;
50231;SDS011;36118;56.468;84.952;2023-04-25T00:56:23;4.40;;;0.90;;
50231;SDS011;36118;56.468;84.952;2023-04-25T01:01:25;3.53;;;0.80;;
50231;SDS011;36118;56.468;84.952;2023-04-25T01:06:29;2.08;;;0.88;;
50231;SDS011;36118;56.468;84.952;2023-04-25T01:11:33;2.00;;;0.85;;
50231;SDS011;36118;56.468;84.952;2023-04-25T01:16:36;1.55;;;0.70;;
50231;SDS011;36118;56.468;84.952;2023-04-25T01:21:39;1.00;;;0.50;;
50231;SDS011;36118;56.468;84.952;2023-04-25T01:26:43;1.95;;;0.70;;
50231;SDS011;36118;56.468;84.952;2023-04-25T01:31:56;3.38;;;0.77;;
50231;SDS011;36118;56.468;84.952;2023-04-25T01:37:01;1.55;;;0.43;;
50231;SDS011;36118;56.468;84.952;2023-04-25T01:42:06;1.55;;;0.60;;
50231;SDS011;36118;56.468;84.952;2023-04-25T01:47:10;0.85;;;0.35;;
50231;SDS011;36118;56.468;84.952;2023-04-25T01:52:13;2.58;;;0.80;;
50231;SDS011;36118;56.468;84.952;2023-04-25T01:57:16;3.28;;;0.90;;
50231;SDS011;36118;56.468;84.952;2023-04-25T02:02:19;1.60;;;0.57;;
50231;SDS011;36118;56.468;84.952;2023-04-25T02:07:22;2.85;;;0.55;;
50231;SDS011;36118;56.468;84.952;2023-04-25T02:12:27;4.68;;;1.08;;
50231;SDS011;36118;56.468;84.952;2023-04-25T02:17:53;3.65;;;0.77;;
50231;SDS011;36118;56.468;84.952;2023-04-25T02:22:56;0.93;;;0.32;;
50231;SDS011;36118;56.468;84.952;2023-04-25T02:27:59;1.15;;;0.57;;
50231;SDS011;36118;56.468;84.952;2023-04-25T02:33:03;3.93;;;0.73;;
50231;SDS011;36118;56.468;84.952;2023-04-25T02:38:06;1.05;;;0.45;;
50231;SDS011;36118;56.468;84.952;2023-04-25T02:43:09;1.38;;;0.50;;
50231;SDS011;36118;56.468;84.952;2023-04-25T02:48:13;4.63;;;1.10;;
50231;SDS011;36118;56.468;84.952;2023-04-25T02:53:16;1.00;;;0.40;;
50231;SDS011;36118;56.468;84.952;2023-04-25T02:58:23;1.73;;;0.52;;
50231;SDS011;36118;56.468;84.952;2023-04-25T03:03:27;0.90;;;0.40;;
50231;SDS011;36118;56.468;84.952;2023-04-25T03:08:30;2.78;;;0.80;;
50231;SDS011;36118;56.468;84.952;2023-04-25T03:13:35;1.83;;;0.55;;
50231;SDS011;36118;56.468;84.952;2023-04-25T03:18:39;2.90;;;0.90;;
50231;SDS011;36118;56.468;84.952;2023-04-25T03:23:42;2.65;;;0.80;;
50231;SDS011;36118;56.468;84.952;2023-04-25T03:28:45;7.82;;;1.77;;
50231;SDS011;36118;56.468;84.952;2023-04-25T03:33:48;0.95;;;0.43;;
50231;SDS011;36118;56.468;84.952;2023-04-25T03:38:54;6.60;;;1.55;;
50231;SDS011;36118;56.468;84.952;2023-04-25T03:43:58;3.85;;;0.82;;
50231;SDS011;36118;56.468;84.952;2023-04-25T03:49:01;3.28;;;0.82;;
50231;SDS011;36118;56.468;84.952;2023-04-25T03:54:24;5.13;;;1.05;;
50231;SDS011;36118;56.468;84.952;2023-04-25T03:59:37;4.90;;;1.50;;
50231;SDS011;36118;56.468;84.952;2023-04-25T04:04:42;1.92;;;0.60;;
50231;SDS011;36118;56.468;84.952;2023-04-25T04:09:47;3.33;;;0.88;;
50231;SDS011;36118;56.468;84.952;2023-04-25T04:14:58;7.05;;;1.48;;
50231;SDS011;36118;56.468;84.952;2023-04-25T04:20:02;2.83;;;0.90;;
50231;SDS011;36118;56.468;84.952;2023-04-25T04:25:07;8.02;;;1.50;;
50231;SDS011;36118;56.468;84.952;2023-04-25T04:30:30;8.40;;;1.10;;
50231;SDS011;36118;56.468;84.952;2023-04-25T04:35:36;4.90;;;0.90;;
50231;SDS011;36118;56.468;84.952;2023-04-25T04:40:39;4.45;;;0.70;;
50231;SDS011;36118;56.468;84.952;2023-04-25T04:45:52;2.35;;;0.90;;
50231;SDS011;36118;56.468;84.952;2023-04-25T04:51:18;4.13;;;1.38;;
50231;SDS011;36118;56.468;84.952;2023-04-25T04:56:36;5.82;;;1.10;;
50231;SDS011;36118;56.468;84.952;2023-04-25T05:01:58;5.40;;;1.08;;
50231;SDS011;36118;56.468;84.952;2023-04-25T05:07:17;7.45;;;1.25;;
50231;SDS011;36118;56.468;84.952;2023-04-25T05:12:34;1.48;;;0.30;;
50231;SDS011;36118;56.468;84.952;2023-04-25T05:17:41;6.82;;;1.42;;
50231;SDS011;36118;56.468;84.952;2023-04-25T05:23:13;3.97;;;0.93;;
50231;SDS011;36118;56.468;84.952;2023-04-25T05:28:36;3.50;;;0.88;;
50231;SDS011;36118;56.468;84.952;2023-04-25T05:34:06;5.45;;;0.70;;
50231;SDS011;36118;56.468;84.952;2023-04-25T05:39:25;4.40;;;0.65;;
50231;SDS011;36118;56.468;84.952;2023-04-25T05:44:51;7.55;;;0.80;;
50231;SDS011;36118;56.468;84.952;2023-04-25T05:50:32;7.90;;;1.58;;
50231;SDS011;36118;56.468;84.952;2023-04-25T05:55:39;12.48;;;2.00;;
50231;SDS011;36118;56.468;84.952;2023-04-25T06:00:59;8.40;;;0.65;;
50231;SDS011;36118;56.468;84.952;2023-04-25T06:06:02;0.88;;;0.30;;
50231;SDS011;36118;56.468;84.952;2023-04-25T06:11:06;2.53;;;0.40;;
50231;SDS011;36118;56.468;84.952;2023-04-25T06:16:09;2.58;;;0.50;;
50231;SDS011;36118;56.468;84.952;2023-04-25T06:21:12;6.82;;;1.50;;
50231;SDS011;36118;56.468;84.952;2023-04-25T06:26:15;2.10;;;0.75;;
50231;SDS011;36118;56.468;84.952;2023-04-25T06:31:20;3.60;;;0.75;;
50231;SDS011;36118;56.468;84.952;2023-04-25T06:36:24;6.32;;;0.70;;
50231;SDS011;36118;56.468;84.952;2023-04-25T06:41:36;4.90;;;0.60;;
50231;SDS011;36118;56.468;84.952;2023-04-25T06:46:42;3.20;;;0.68;;
50231;SDS011;36118;56.468;84.952;2023-04-25T06:51:47;2.45;;;0.70;;
50231;SDS011;36118;56.468;84.952;2023-04-25T06:56:50;7.22;;;1.08;;
50231;SDS011;36118;56.468;84.952;2023-04-25T07:01:53;5.20;;;1.10;;
50231;SDS011;36118;56.468;84.952;2023-04-25T07:07:00;7.45;;;0.80;;
50231;SDS011;36118;56.468;84.952;2023-04-25T07:12:17;9.45;;;1.55;;
50231;SDS011;36118;56.468;84.952;2023-04-25T07:17:19;1.70;;;0.40;;
50231;SDS011;36118;56.468;84.952;2023-04-25T07:22:23;6.57;;;1.42;;
50231;SDS011;36118;56.468;84.952;2023-04-25T07:27:26;1.67;;;0.30;;
50231;SDS011;36118;56.468;84.952;2023-04-25T07:32:36;0.70;;;0.30;;
50231;SDS011;36118;56.468;84.952;2023-04-25T07:37:39;0.95;;;0.30;;
50231;SDS011;36118;56.468;84.952;2023-04-25T07:42:48;1.00;;;0.30;;
50231;SDS011;36118;56.468;84.952;2023-04-25T07:47:57;3.33;;;0.50;;
50231;SDS011;36118;56.468;84.952;2023-04-25T07:53:00;1.42;;;0.50;;
50231;SDS011;36118;56.468;84.952;2023-04-25T07:58:09;6.93;;;0.63;;
50231;SDS011;36118;56.468;84.952;2023-04-25T08:03:15;1.17;;;0.28;;
50231;SDS011;36118;56.468;84.952;2023-04-25T08:08:19;0.70;;;0.28;;
50231;SDS011;36118;56.468;84.952;2023-04-25T08:13:22;4.47;;;0.70;;
50231;SDS011;36118;56.468;84.952;2023-04-25T08:18:26;3.30;;;0.57;;
50231;SDS011;36118;56.468;84.952;2023-04-25T08:23:29;3.97;;;0.30;;
50231;SDS011;36118;56.468;84.952;2023-04-25T08:28:38;7.18;;;0.55;;
50231;SDS011;36118;56.468;84.952;2023-04-25T08:33:41;1.77;;;0.47;;
50231;SDS011;36118;56.468;84.952;2023-04-25T08:39:05;1.90;;;0.60;;
50231;SDS011;36118;56.468;84.952;2023-04-25T08:44:17;3.97;;;0.50;;
50231;SDS011;36118;56.468;84.952;2023-04-25T08:49:20;2.70;;;0.60;;
50231;SDS011;36118;56.468;84.952;2023-04-25T08:54:23;4.53;;;0.40;;
50231;SDS011;36118;56.468;84.952;2023-04-25T08:59:52;2.67;;;0.40;;
50231;SDS011;36118;56.468;84.952;2023-04-25T09:04:57;6.10;;;0.57;;
50231;SDS011;36118;56.468;84.952;2023-04-25T09:10:01;3.13;;;0.73;;
50231;SDS011;36118;56.468;84.952;2023-04-25T09:15:10;6.55;;;0.88;;
50231;SDS011;36118;56.468;84.952;2023-04-25T09:21:07;2.70;;;0.55;;
50231;SDS011;36118;56.468;84.952;2023-04-25T09:26:20;5.53;;;0.70;;
50231;SDS011;36118;56.468;84.952;2023-04-25T09:31:24;6.53;;;1.00;;
50231;SDS011;36118;56.468;84.952;2023-04-25T09:36:34;4.50;;;0.77;;
50231;SDS011;36118;56.468;84.952;2023-04-25T09:41:56;21.13;;;6.13;;
50231;SDS011;36118;56.468;84.952;2023-04-25T09:46:59;9.68;;;2.72;;
50231;SDS011;36118;56.468;84.952;2023-04-25T09:52:04;6.85;;;0.70;;
50231;SDS011;36118;56.468;84.952;2023-04-25T09:57:21;4.32;;;1.30;;
50231;SDS011;36118;56.468;84.952;2023-04-25T10:02:29;2.45;;;0.82;;
50231;SDS011;36118;56.468;84.952;2023-04-25T10:07:40;1.42;;;0.45;;
50231;SDS011;36118;56.468;84.952;2023-04-25T10:12:48;9.55;;;1.08;;
50231;SDS011;36118;56.468;84.952;2023-04-25T10:17:51;4.97;;;0.90;;
50231;SDS011;36118;56.468;84.952;2023-04-25T10:22:55;4.70;;;0.60;;
50231;SDS011;36118;56.468;84.952;2023-04-25T10:28:03;2.63;;;0.70;;
50231;SDS011;36118;56.468;84.952;2023-04-25T10:33:16;3.95;;;0.68;;
50231;SDS011;36118;56.468;84.952;2023-04-25T10:38:20;1.27;;;0.40;;
50231;SDS011;36118;56.468;84.952;2023-04-25T10:43:42;3.95;;;0.45;;
50231;SDS011;36118;56.468;84.952;2023-04-25T10:48:52;7.10;;;1.00;;
50231;SDS011;36118;56.468;84.952;2023-04-25T10:54:07;3.75;;;0.75;;
50231;SDS011;36118;56.468;84.952;2023-04-25T10:59:11;5.93;;;0.63;;
50231;SDS011;36118;56.468;84.952;2023-04-25T11:04:19;2.65;;;0.75;;
50231;SDS011;36118;56.468;84.952;2023-04-25T11:09:26;4.40;;;0.70;;
50231;SDS011;36118;56.468;84.952;2023-04-25T11:14:30;8.80;;;1.02;;
50231;SDS011;36118;56.468;84.952;2023-04-25T11:19:34;6.28;;;1.10;;
50231;SDS011;36118;56.468;84.952;2023-04-25T11:24:37;3.60;;;0.70;;
50231;SDS011;36118;56.468;84.952;2023-04-25T11:29:40;3.88;;;0.70;;
50231;SDS011;36118;56.468;84.952;2023-04-25T11:34:44;4.47;;;0.80;;
50231;SDS011;36118;56.468;84.952;2023-04-25T11:39:50;8.00;;;1.00;;
50231;SDS011;36118;56.468;84.952;2023-04-25T11:44:54;1.98;;;0.60;;
50231;SDS011;36118;56.468;84.952;2023-04-25T11:50:01;2.13;;;0.60;;
50231;SDS011;36118;56.468;84.952;2023-04-25T11:55:06;4.53;;;0.90;;
50231;SDS011;36118;56.468;84.952;2023-04-25T12:00:19;4.03;;;1.27;;
50231;SDS011;36118;56.468;84.952;2023-04-25T12:05:24;6.27;;;1.20;;
50231;SDS011;36118;56.468;84.952;2023-04-25T12:10:36;6.38;;;1.02;;
50231;SDS011;36118;56.468;84.952;2023-04-25T12:15:43;4.85;;;1.02;;
50231;SDS011;36118;56.468;84.952;2023-04-25T12:20:46;7.72;;;1.30;;
50231;SDS011;36118;56.468;84.952;2023-04-25T12:26:20;6.22;;;1.70;;
50231;SDS011;36118;56.468;84.952;2023-04-25T12:31:24;3.05;;;1.00;;
50231;SDS011;36118;56.468;84.952;2023-04-25T12:36:27;7.47;;;1.90;;
50231;SDS011;36118;56.468;84.952;2023-04-25T12:41:37;2.60;;;0.73;;
50231;SDS011;36118;56.468;84.952;2023-04-25T12:46:49;10.75;;;1.20;;
50231;SDS011;36118;56.468;84.952;2023-04-25T12:51:52;10.63;;;4.20;;
50231;SDS011;36118;56.468;84.952;2023-04-25T12:56:55;9.45;;;3.45;;
50231;SDS011;36118;56.468;84.952;2023-04-25T13:01:59;7.15;;;2.80;;
50231;SDS011;36118;56.468;84.952;2023-04-25T13:07:02;16.95;;;4.88;;
50231;SDS011;36118;56.468;84.952;2023-04-25T13:12:08;5.75;;;2.90;;
50231;SDS011;36118;56.468;84.952;2023-04-25T13:17:10;5.18;;;1.17;;
50231;SDS011;36118;56.468;84.952;2023-04-25T13:22:13;8.25;;;1.45;;
50231;SDS011;36118;56.468;84.952;2023-04-25T13:32:21;13.23;;;1.70;;
50231;SDS011;36118;56.468;84.952;2023-04-25T13:37:24;12.70;;;2.10;;
50231;SDS011;36118;56.468;84.952;2023-04-25T13:42:32;31.58;;;3.17;;
50231;SDS011;36118;56.468;84.952;2023-04-25T13:47:38;16.35;;;2.95;;
50231;SDS011;36118;56.468;84.952;2023-04-25T13:52:41;11.32;;;2.88;;
50231;SDS011;36118;56.468;84.952;2023-04-25T13:57:44;10.05;;;2.30;;
50231;SDS011;36118;56.468;84.952;2023-04-25T14:02:47;8.13;;;1.63;;
50231;SDS011;36118;56.468;84.952;2023-04-25T14:07:51;7.80;;;1.35;;
50231;SDS011;36118;56.468;84.952;2023-04-25T14:12:55;14.63;;;1.90;;
50231;SDS011;36118;56.468;84.952;2023-04-25T14:17:58;11.70;;;2.88;;
50231;SDS011;36118;56.468;84.952;2023-04-25T14:23:04;16.17;;;2.25;;
50231;SDS011;36118;56.468;84.952;2023-04-25T14:28:09;25.70;;;2.90;;
50231;SDS011;36118;56.468;84.952;2023-04-25T14:33:13;11.57;;;2.63;;
50231;SDS011;36118;56.468;84.952;2023-04-25T14:43:25;17.75;;;3.05;;
50231;SDS011;36118;56.468;84.952;2023-04-25T14:48:28;15.35;;;3.92;;
50231;SDS011;36118;56.468;84.952;2023-04-25T14:53:32;19.05;;;3.10;;
50231;SDS011;36118;56.468;84.952;2023-04-25T14:58:38;18.83;;;2.78;;
50231;SDS011;36118;56.468;84.952;2023-04-25T15:03:42;12.53;;;3.10;;
50231;SDS011;36118;56.468;84.952;2023-04-25T15:08:45;10.88;;;2.90;;
50231;SDS011;36118;56.468;84.952;2023-04-25T15:13:48;9.93;;;2.75;;
50231;SDS011;36118;56.468;84.952;2023-04-25T15:18:52;10.38;;;3.15;;
50231;SDS011;36118;56.468;84.952;2023-04-25T15:23:55;8.65;;;2.40;;
50231;SDS011;36118;56.468;84.952;2023-04-25T15:28:58;16.70;;;2.47;;
50231;SDS011;36118;56.468;84.952;2023-04-25T15:34:01;8.27;;;2.20;;
50231;SDS011;36118;56.468;84.952;2023-04-25T15:39:04;8.13;;;2.60;;
50231;SDS011;36118;56.468;84.952;2023-04-25T15:44:07;11.60;;;2.85;;
50231;SDS011;36118;56.468;84.952;2023-04-25T15:49:12;10.35;;;3.08;;
50231;SDS011;36118;56.468;84.952;2023-04-25T15:54:14;10.23;;;3.30;;
50231;SDS011;36118;56.468;84.952;2023-04-25T15:59:18;12.80;;;3.65;;
50231;SDS011;36118;56.468;84.952;2023-04-25T16:04:23;15.70;;;4.18;;
50231;SDS011;36118;56.468;84.952;2023-04-25T16:09:41;11.52;;;3.92;;
50231;SDS011;36118;56.468;84.952;2023-04-25T16:14:43;10.50;;;3.70;;
50231;SDS011;36118;56.468;84.952;2023-04-25T16:19:46;10.57;;;3.53;;
50231;SDS011;36118;56.468;84.952;2023-04-25T16:24:51;9.90;;;3.40;;
50231;SDS011;36118;56.468;84.952;2023-04-25T16:29:54;13.82;;;3.50;;
50231;SDS011;36118;56.468;84.952;2023-04-25T16:34:57;13.00;;;3.00;;
50231;SDS011;36118;56.468;84.952;2023-04-25T16:40:00;5.43;;;2.30;;
50231;SDS011;36118;56.468;84.952;2023-04-25T16:45:05;8.63;;;2.42;;
50231;SDS011;36118;56.468;84.952;2023-04-25T16:50:09;6.03;;;1.65;;
50231;SDS011;36118;56.468;84.952;2023-04-25T16:55:12;6.45;;;1.98;;
50231;SDS011;36118;56.468;84.952;2023-04-25T17:00:15;4.85;;;1.50;;
50231;SDS011;36118;56.468;84.952;2023-04-25T17:05:19;6.07;;;1.60;;
50231;SDS011;36118;56.468;84.952;2023-04-25T17:10:22;3.38;;;1.25;;
50231;SDS011;36118;56.468;84.952;2023-04-25T17:15:25;4.65;;;1.95;;
50231;SDS011;36118;56.468;84.952;2023-04-25T17:20:28;3.38;;;1.33;;
50231;SDS011;36118;56.468;84.952;2023-04-25T17:25:30;4.13;;;1.23;;
50231;SDS011;36118;56.468;84.952;2023-04-25T17:30:34;4.28;;;1.30;;
50231;SDS011;36118;56.468;84.952;2023-04-25T17:35:37;2.33;;;1.02;;
50231;SDS011;36118;56.468;84.952;2023-04-25T17:40:39;4.30;;;0.90;;
50231;SDS011;36118;56.468;84.952;2023-04-25T17:45:42;4.18;;;1.52;;
50231;SDS011;36118;56.468;84.952;2023-04-25T17:50:45;3.00;;;1.30;;
50231;SDS011;36118;56.468;84.952;2023-04-25T17:55:48;7.28;;;1.60;;
50231;SDS011;36118;56.468;84.952;2023-04-25T18:00:51;5.18;;;1.83;;
50231;SDS011;36118;56.468;84.952;2023-04-25T18:05:54;4.70;;;1.50;;
50231;SDS011;36118;56.468;84.952;2023-04-25T18:10:57;2.92;;;1.30;;
50231;SDS011;36118;56.468;84.952;2023-04-25T18:16:00;3.83;;;1.40;;
50231;SDS011;36118;56.468;84.952;2023-04-25T18:21:03;3.72;;;1.15;;
50231;SDS011;36118;56.468;84.952;2023-04-25T18:26:09;5.45;;;2.40;;
50231;SDS011;36118;56.468;84.952;2023-04-25T18:31:11;7.50;;;2.13;;
50231;SDS011;36118;56.468;84.952;2023-04-25T18:36:17;6.80;;;1.20;;
50231;SDS011;36118;56.468;84.952;2023-04-25T18:41:21;2.50;;;0.90;;
50231;SDS011;36118;56.468;84.952;2023-04-25T18:51:38;6.43;;;1.40;;
50231;SDS011;36118;56.468;84.952;2023-04-25T18:56:42;2.90;;;1.00;;
50231;SDS011;36118;56.468;84.952;2023-04-25T19:01:45;4.45;;;1.10;;
50231;SDS011;36118;56.468;84.952;2023-04-25T19:06:48;2.72;;;1.00;;
50231;SDS011;36118;56.468;84.952;2023-04-25T19:11:52;3.45;;;0.80;;
50231;SDS011;36118;56.468;84.952;2023-04-25T19:16:55;4.13;;;0.88;;
50231;SDS011;36118;56.468;84.952;2023-04-25T19:27:03;4.85;;;1.10;;
50231;SDS011;36118;56.468;84.952;2023-04-25T19:32:05;5.00;;;1.08;;
50231;SDS011;36118;56.468;84.952;2023-04-25T19:37:08;5.10;;;1.00;;
50231;SDS011;36118;56.468;84.952;2023-04-25T19:42:11;4.05;;;1.20;;
50231;SDS011;36118;56.468;84.952;2023-04-25T19:47:14;9.82;;;1.17;;
50231;SDS011;36118;56.468;84.952;2023-04-25T19:52:17;4.38;;;1.10;;
50231;SDS011;36118;56.468;84.952;2023-04-25T19:57:20;3.92;;;1.23;;
50231;SDS011;36118;56.468;84.952;2023-04-25T20:02:23;10.95;;;1.70;;
50231;SDS011;36118;56.468;84.952;2023-04-25T20:07:27;4.80;;;1.50;;
50231;SDS011;36118;56.468;84.952;2023-04-25T20:12:31;4.65;;;1.30;;
50231;SDS011;36118;56.468;84.952;2023-04-25T20:17:34;3.55;;;1.20;;
50231;SDS011;36118;56.468;84.952;2023-04-25T20:22:38;5.20;;;1.42;;
50231;SDS011;36118;56.468;84.952;2023-04-25T20:27:41;4.03;;;1.27;;
50231;SDS011;36118;56.468;84.952;2023-04-25T20:32:44;4.10;;;1.45;;
50231;SDS011;36118;56.468;84.952;2023-04-25T20:37:48;5.32;;;1.48;;
50231;SDS011;36118;56.468;84.952;2023-04-25T20:42:52;4.10;;;1.35;;
50231;SDS011;36118;56.468;84.952;2023-04-25T20:47:55;4.45;;;1.48;;
50231;SDS011;36118;56.468;84.952;2023-04-25T20:52:58;4.55;;;1.48;;
50231;SDS011;36118;56.468;84.952;2023-04-25T20:58:01;5.75;;;1.58;;
50231;SDS011;36118;56.468;84.952;2023-04-25T21:03:04;4.90;;;1.50;;
50231;SDS011;36118;56.468;84.952;2023-04-25T21:08:09;3.88;;;1.30;;
50231;SDS011;36118;56.468;84.952;2023-04-25T21:13:12;3.22;;;1.48;;
50231;SDS011;36118;56.468;84.952;2023-04-25T21:18:15;6.22;;;1.50;;
50231;SDS011;36118;56.468;84.952;2023-04-25T21:23:17;14.15;;;2.72;;
50231;SDS011;36118;56.468;84.952;2023-04-25T21:28:20;18.23;;;2.65;;
50231;SDS011;36118;56.468;84.952;2023-04-25T21:33:24;9.30;;;2.42;;
50231;SDS011;36118;56.468;84.952;2023-04-25T21:38:27;10.02;;;2.28;;
50231;SDS011;36118;56.468;84.952;2023-04-25T21:43:30;12.45;;;2.30;;
50231;SDS011;36118;56.468;84.952;2023-04-25T21:48:33;13.05;;;2.25;;
50231;SDS011;36118;56.468;84.952;2023-04-25T21:53:36;13.82;;;2.67;;
50231;SDS011;36118;56.468;84.952;2023-04-25T21:58:39;12.73;;;2.53;;
50231;SDS011;36118;56.468;84.952;2023-04-25T22:03:42;14.35;;;2.50;;
50231;SDS011;36118;56.468;84.952;2023-04-25T22:08:45;10.50;;;2.42;;
50231;SDS011;36118;56.468;84.952;2023-04-25T22:13:47;8.20;;;2.63;;
50231;SDS011;36118;56.468;84.952;2023-04-25T22:18:51;12.35;;;3.13;;
50231;SDS011;36118;56.468;84.952;2023-04-25T22:23:54;10.18;;;3.17;;
50231;SDS011;36118;56.468;84.952;2023-04-25T22:29:01;8.65;;;2.80;;
50231;SDS011;36118;56.468;84.952;2023-04-25T22:34:04;7.32;;;2.53;;
50231;SDS011;36118;56.468;84.952;2023-04-25T22:39:08;11.07;;;3.22;;
50231;SDS011;36118;56.468;84.952;2023-04-25T22:44:11;10.07;;;3.22;;
50231;SDS011;36118;56.468;84.952;2023-04-25T22:49:14;10.65;;;3.30;;
50231;SDS011;36118;56.468;84.952;2023-04-25T22:54:17;11.50;;;2.55;;
50231;SDS011;36118;56.468;84.952;2023-04-25T22:59:20;7.93;;;2.20;;
50231;SDS011;36118;56.468;84.952;2023-04-25T23:04:23;9.40;;;2.33;;
50231;SDS011;36118;56.468;84.952;2023-04-25T23:09:26;13.18;;;2.60;;
50231;SDS011;36118;56.468;84.952;2023-04-25T23:14:29;14.25;;;2.70;;
50231;SDS011;36118;56.468;84.952;2023-04-25T23:19:32;13.95;;;2.97;;
50231;SDS011;36118;56.468;84.952;2023-04-25T23:24:35;12.82;;;2.45;;
50231;SDS011;36118;56.468;84.952;2023-04-25T23:29:41;9.23;;;2.30;;
50231;SDS011;36118;56.468;84.952;2023-04-25T23:34:44;17.63;;;2.47;;
50231;SDS011;36118;56.468;84.952;2023-04-25T23:39:47;17.75;;;2.22;;
50231;SDS011;36118;56.468;84.952;2023-04-25T23:44:53;3.78;;;1.50;;
50231;SDS011;36118;56.468;84.952;2023-04-25T23:49:56;6.20;;;1.55;;
50231;SDS011;36118;56.468;84.952;2023-04-25T23:55:04;8.23;;;1.30;;
